Time;durP1;ratioP1;P1;durP2;ratioP2;P2;SDS_P1;SDS_P2;PMS_P1;PMS_P2;Temp;Humidity;BMP_temperature;BMP_pressure;BME280_temperature;BME280_humidity;BME280_pressure;Samples;Min_cycle;Max_cycle;Signal;HPM_P1;HPM_P2
2023/09/07 00:00:52;;;;;;;23.17;17.17;;;;;;;-141.97;75.12;47690.16;5031846;28;20264;-79
2023/09/07 00:03:17;;;;;;;24.73;17.17;;;;;;;-141.97;75.27;47651.69;5031389;28;20502;-79
2023/09/07 00:05:42;;;;;;;22.90;17.30;;;;;;;-141.97;75.10;47659.38;5031522;28;20170;-79
2023/09/07 00:08:08;;;;;;;19.73;15.93;;;;;;;-141.97;74.72;47659.38;5031405;28;20206;-80
2023/09/07 00:10:35;;;;;;;21.27;16.33;;;;;;;-141.97;74.58;47674.78;5031499;28;20212;-79
2023/09/07 00:13:02;;;;;;;23.50;16.67;;;;;;;-141.97;74.29;47657.47;5031528;28;20249;-79
2023/09/07 00:15:28;;;;;;;20.80;16.80;;;;;;;-141.97;74.05;47634.41;5031781;28;20172;-79
2023/09/07 00:17:53;;;;;;;20.70;16.67;;;;;;;-141.97;74.14;47619.03;5029807;28;20174;-79
2023/09/07 00:20:19;;;;;;;23.50;15.83;;;;;;;-141.97;73.79;47647.84;5029668;28;20264;-79
2023/09/07 00:22:44;;;;;;;20.70;16.20;;;;;;;-141.97;74.07;47653.63;5031167;28;20178;-79
2023/09/07 00:25:10;;;;;;;21.97;15.53;;;;;;;-141.97;74.20;47647.84;5031214;28;20185;-82
2023/09/07 00:27:35;;;;;;;21.50;15.87;;;;;;;-141.97;73.85;47653.63;5031471;28;20219;-79
2023/09/07 00:30:04;;;;;;;21.40;14.53;;;;;;;-141.97;72.81;47661.31;5031169;28;20177;-79
2023/09/07 00:32:30;;;;;;;21.40;14.13;;;;;;;-141.97;71.69;47653.63;5031230;28;20190;-79
2023/09/07 00:34:55;;;;;;;21.37;14.43;;;;;;;-141.97;72.73;47684.38;5031182;28;20216;-79
2023/09/07 00:37:20;;;;;;;19.23;14.43;;;;;;;-141.97;71.35;47655.53;5031826;28;20603;-80
2023/09/07 00:39:46;;;;;;;19.03;14.23;;;;;;;-141.97;72.62;47692.06;5033454;28;20289;-80
2023/09/07 00:42:11;;;;;;;19.40;14.40;;;;;;;-141.97;71.70;47690.16;5035947;28;20214;-78
2023/09/07 00:44:36;;;;;;;20.00;14.30;;;;;;;-141.97;71.29;47751.66;5049815;28;20180;-78
2023/09/07 00:47:02;;;;;;;20.83;14.73;;;;;;;-141.97;72.49;47653.63;5038679;28;20170;-78
2023/09/07 00:49:28;;;;;;;21.77;15.30;;;;;;;-141.97;73.30;47680.53;5030890;28;20705;-79
2023/09/07 00:51:53;;;;;;;21.27;15.07;;;;;;;-141.97;72.81;47647.84;5030562;28;20568;-82
2023/09/07 00:54:19;;;;;;;21.73;15.43;;;;;;;-141.97;73.71;47638.25;5030917;28;20178;-79
2023/09/07 00:56:44;;;;;;;19.23;15.47;;;;;;;-141.97;75.04;47649.78;5020191;28;20292;-79
2023/09/07 00:59:11;;;;;;;22.90;16.37;;;;;;;-141.97;76.12;47651.69;5030648;28;20643;-78
2023/09/07 01:01:37;;;;;;;23.70;17.73;;;;;;;-141.97;77.56;47669.00;5030349;28;20181;-79
2023/09/07 01:04:03;;;;;;;24.77;18.53;;;;;;;-141.97;79.44;47663.22;5031159;28;20220;-79
2023/09/07 01:07:02;;;;;;;24.37;20.37;;;;;;;-141.97;82.03;47670.91;5031201;28;20633;-79
2023/09/07 01:09:32;;;;;;;27.93;20.53;;;;;;;-141.97;82.13;47692.06;4949976;29;20335;-79
2023/09/07 01:11:57;;;;;;;25.27;18.33;;;;;;;-141.97;82.00;47688.22;4967795;28;20699;-80
2023/09/07 01:14:22;;;;;;;24.47;19.67;;;;;;;-141.97;81.92;47667.06;4969518;28;20215;-79
2023/09/07 01:16:49;;;;;;;23.97;19.20;;;;;;;-141.97;82.29;47676.69;4969376;28;20463;-79
2023/09/07 01:19:15;;;;;;;25.90;20.67;;;;;;;-141.97;82.01;47695.91;4968994;28;20290;-79
2023/09/07 01:21:41;;;;;;;26.73;20.10;;;;;;;-141.97;82.38;47661.31;4969038;28;20279;-79
2023/09/07 01:24:09;;;;;;;30.10;22.37;;;;;;;-141.97;83.16;47688.22;4969208;28;20175;-79
2023/09/07 01:26:38;;;;;;;30.47;24.07;;;;;;;-141.97;85.10;47661.31;4969231;28;20192;-78
2023/09/07 01:29:05;;;;;;;31.93;24.20;;;;;;;-141.97;86.21;47730.50;4969049;28;20174;-79
2023/09/07 01:31:30;;;;;;;33.97;24.23;;;;;;;-141.97;87.04;47694.00;4967729;28;20316;-78
2023/09/07 01:33:55;;;;;;;33.13;25.53;;;;;;;-141.97;88.40;47695.91;4971985;28;20192;-78
2023/09/07 01:36:21;;;;;;;35.33;25.70;;;;;;;-141.97;89.12;47670.91;4973161;28;20191;-79
2023/09/07 01:38:46;;;;;;;38.00;25.60;;;;;;;-141.97;89.64;47657.47;4973057;28;20219;-79
2023/09/07 01:41:11;;;;;;;38.03;26.47;;;;;;;-141.97;90.03;47692.06;4972974;28;20180;-79
2023/09/07 01:43:37;;;;;;;35.97;27.33;;;;;;;-141.97;90.67;47686.31;4972870;28;20367;-79
2023/09/07 01:46:02;;;;;;;35.10;26.70;;;;;;;-141.97;90.83;47688.22;5011430;28;20264;-79
2023/09/07 01:48:28;;;;;;;37.10;27.20;;;;;;;-141.97;91.14;47705.53;5054536;28;20167;-79
2023/09/07 01:50:54;;;;;;;37.83;28.10;;;;;;;-141.97;91.38;47717.06;5054010;28;20565;-79
2023/09/07 01:53:19;;;;;;;43.17;28.53;;;;;;;-141.97;91.74;47709.38;5054040;28;20607;-78
2023/09/07 01:55:45;;;;;;;39.70;28.53;;;;;;;-141.97;91.65;47684.38;5044537;28;20158;-79
2023/09/07 01:58:10;;;;;;;38.30;28.43;;;;;;;-141.97;91.85;47690.16;5053951;28;20173;-79
2023/09/07 02:00:38;;;;;;;38.40;27.50;;;;;;;-141.97;91.64;47667.06;5053684;28;20180;-79
2023/09/07 02:03:04;;;;;;;44.07;29.70;;;;;;;-141.97;93.77;47659.38;5054239;28;20168;-78
2023/09/07 02:05:32;;;;;;;40.80;29.67;;;;;;;-141.97;93.85;47676.69;5054103;28;20160;-79
2023/09/07 02:07:57;;;;;;;40.47;29.70;;;;;;;-141.97;93.51;47707.44;5054454;28;20153;-79
2023/09/07 02:10:23;;;;;;;41.17;29.63;;;;;;;-141.97;93.29;47699.75;5043880;28;20704;-78
2023/09/07 02:12:49;;;;;;;39.60;30.00;;;;;;;-141.97;92.52;47684.38;5033958;28;20166;-78
2023/09/07 02:15:14;;;;;;;40.57;30.40;;;;;;;-141.97;94.32;47680.53;5034057;28;20169;-79
2023/09/07 02:17:39;;;;;;;43.60;30.97;;;;;;;-141.97;94.46;47584.44;5033710;28;20196;-78
2023/09/07 02:20:10;;;;;;;44.93;31.50;;;;;;;-141.97;95.56;47713.22;5033106;28;20212;-78
2023/09/07 02:22:36;;;;;;;43.53;31.77;;;;;;;-141.97;97.50;47695.91;5033666;28;20638;-79
2023/09/07 02:25:02;;;;;;;43.17;30.80;;;;;;;-141.97;97.24;47707.44;5033943;28;20166;-78
2023/09/07 02:27:28;;;;;;;47.70;32.33;;;;;;;-141.97;97.79;47699.75;5033626;28;20169;-79
2023/09/07 02:29:53;;;;;;;46.30;32.87;;;;;;;-141.97;98.44;47607.50;5033441;28;20776;-79
2023/09/07 02:32:18;;;;;;;46.13;32.40;;;;;;;-141.97;98.14;47692.06;5032051;28;20172;-79
2023/09/07 02:34:44;;;;;;;45.00;32.80;;;;;;;-141.97;97.88;47680.53;5033268;28;20170;-79
2023/09/07 02:37:09;;;;;;;46.43;33.17;;;;;;;-141.97;97.87;47690.16;5033707;28;20549;-80
2023/09/07 02:39:35;;;;;;;47.40;33.53;;;;;;;-141.97;97.45;47684.38;5033522;28;20328;-79
2023/09/07 02:42:00;;;;;;;48.00;33.23;;;;;;;-141.97;97.23;47703.59;5033014;28;20769;-79
2023/09/07 02:44:25;;;;;;;49.70;35.23;;;;;;;-141.97;97.71;47726.66;5031609;28;20162;-79
2023/09/07 02:46:51;;;;;;;49.70;34.60;;;;;;;-141.97;98.25;47711.28;5033176;28;20587;-80
2023/09/07 02:49:16;;;;;;;50.57;35.70;;;;;;;-141.97;98.02;47703.59;5033050;28;20173;-80
2023/09/07 02:51:41;;;;;;;52.80;35.83;;;;;;;-141.97;99.41;47694.00;5033139;28;20542;-78
2023/09/07 02:54:07;;;;;;;50.33;36.17;;;;;;;-141.97;98.89;47682.47;5031203;28;20210;-79
2023/09/07 02:56:32;;;;;;;53.70;37.33;;;;;;;-141.97;98.58;47695.91;5023492;28;20253;-79
2023/09/07 02:58:57;;;;;;;51.30;36.43;;;;;;;-141.97;98.17;47669.00;5031603;28;20197;-78
2023/09/07 03:01:23;;;;;;;52.10;36.63;;;;;;;-141.97;98.37;47713.22;5032802;28;20197;-79
2023/09/07 03:03:48;;;;;;;49.07;35.80;;;;;;;-141.97;98.65;47817.00;5032460;28;20649;-78
2023/09/07 03:06:16;;;;;;;51.73;35.97;;;;;;;-141.97;98.90;47718.97;5033188;28;20170;-79
2023/09/07 03:08:42;;;;;;;51.20;36.60;;;;;;;-141.97;99.24;47692.06;5031664;28;20897;-79
2023/09/07 03:11:08;;;;;;;51.50;36.70;;;;;;;-141.97;99.80;47730.50;5033094;28;20162;-78
2023/09/07 03:13:34;;;;;;;52.10;37.03;;;;;;;-141.97;100.00;47736.28;5033991;28;20249;-77
2023/09/07 03:16:00;;;;;;;53.70;37.10;;;;;;;-141.97;100.00;47715.13;5045020;28;20186;-76
2023/09/07 03:18:26;;;;;;;54.00;37.43;;;;;;;-141.97;100.00;47695.91;5033582;28;20220;-79
2023/09/07 03:20:54;;;;;;;50.73;36.87;;;;;;;-141.97;100.00;47717.06;5032457;28;20177;-78
2023/09/07 03:23:19;;;;;;;53.20;37.10;;;;;;;-141.97;100.00;47707.44;5032668;28;20269;-78
2023/09/07 03:25:44;;;;;;;54.00;36.53;;;;;;;-141.97;99.93;47734.34;5036853;28;20245;-79
2023/09/07 03:28:10;;;;;;;61.27;37.13;;;;;;;-141.97;100.00;47688.22;5039476;28;20563;-78
2023/09/07 03:30:35;;;;;;;52.33;36.27;;;;;;;-141.97;100.00;47705.53;5035684;28;20186;-78
2023/09/07 03:33:01;;;;;;;52.00;35.83;;;;;;;-141.97;100.00;47695.91;5033468;28;20232;-78
2023/09/07 03:35:27;;;;;;;54.03;36.50;;;;;;;-141.97;100.00;47734.34;5032170;28;20166;-78
2023/09/07 03:37:52;;;;;;;53.63;36.43;;;;;;;-141.97;100.00;47709.38;5032112;28;20173;-78
2023/09/07 03:40:17;;;;;;;51.03;35.60;;;;;;;-141.97;100.00;47724.75;5031735;28;20194;-80
2023/09/07 03:42:45;;;;;;;52.20;35.00;;;;;;;-141.97;100.00;47718.97;5046985;28;20232;-79
2023/09/07 03:45:10;;;;;;;47.90;33.47;;;;;;;-141.97;99.60;47738.19;5032050;28;20181;-80
2023/09/07 03:47:37;;;;;;;43.77;32.53;;;;;;;-141.97;99.42;47715.13;5032304;28;20162;-79
2023/09/07 03:50:03;;;;;;;48.00;32.50;;;;;;;-141.97;98.92;47707.44;5031281;28;20718;-79
2023/09/07 03:52:28;;;;;;;46.90;32.63;;;;;;;-141.97;98.65;47599.81;5032258;28;20193;-80
2023/09/07 03:54:55;;;;;;;43.03;31.57;;;;;;;-141.97;98.42;47715.13;5031653;28;20170;-80
2023/09/07 03:57:21;;;;;;;44.97;32.00;;;;;;;-141.97;98.22;47707.44;5021339;28;20307;-79
2023/09/07 03:59:48;;;;;;;43.93;31.40;;;;;;;-141.97;98.00;47720.91;5031233;28;20275;-80
2023/09/07 04:02:13;;;;;;;44.47;31.57;;;;;;;-141.97;97.76;47663.22;5031584;28;20234;-79
2023/09/07 04:04:39;;;;;;;44.17;31.23;;;;;;;-141.97;97.92;47720.91;5031506;28;20556;-80
2023/09/07 04:07:04;;;;;;;44.93;31.17;;;;;;;-141.97;97.26;47703.59;5020129;28;20243;-81
2023/09/07 04:09:30;;;;;;;46.73;31.57;;;;;;;-141.97;97.30;47742.03;5019873;28;21061;-79
2023/09/07 04:11:56;;;;;;;43.53;30.80;;;;;;;-141.97;97.25;47726.66;5031666;28;20641;-79
2023/09/07 04:14:21;;;;;;;48.43;31.67;;;;;;;-141.97;97.40;47695.91;5031843;28;20178;-80
2023/09/07 04:16:46;;;;;;;44.70;30.40;;;;;;;-141.97;96.63;47734.34;5033237;28;20162;-79
2023/09/07 04:19:12;;;;;;;43.50;30.07;;;;;;;-141.97;96.73;47705.53;5030912;28;20197;-79
2023/09/07 04:21:38;;;;;;;42.37;30.17;;;;;;;-141.97;96.58;47699.75;5031336;28;20245;-79
2023/09/07 04:24:04;;;;;;;40.90;29.70;;;;;;;-141.97;96.44;47718.97;5031440;28;20646;-79
2023/09/07 04:26:30;;;;;;;45.00;30.13;;;;;;;-141.97;96.16;47701.69;5031507;28;20178;-79
2023/09/07 04:28:55;;;;;;;45.07;29.93;;;;;;;-141.97;95.58;47726.66;5030971;28;20678;-80
2023/09/07 04:31:21;;;;;;;47.83;30.27;;;;;;;-141.97;95.32;47699.75;5030944;28;20178;-80
2023/09/07 04:33:46;;;;;;;46.83;31.20;;;;;;;-141.97;95.36;47709.38;5031824;28;20166;-79
2023/09/07 04:36:14;;;;;;;46.67;30.83;;;;;;;-141.97;96.06;47705.53;5049107;28;20234;-80
2023/09/07 04:38:40;;;;;;;45.13;31.20;;;;;;;-141.97;95.18;47717.06;5046548;28;20219;-79
2023/09/07 04:41:13;;;;;;;42.63;31.03;;;;;;;-141.97;95.37;47709.38;5031408;28;20170;-79
2023/09/07 04:43:42;;;;;;;40.63;31.07;;;;;;;-141.97;94.99;47653.63;5030778;28;20233;-80
2023/09/07 04:46:08;;;;;;;46.20;31.90;;;;;;;-141.97;96.06;47695.91;5031076;28;20158;-80
2023/09/07 04:48:36;;;;;;;46.03;31.90;;;;;;;-141.97;95.76;47703.59;5031062;28;20162;-80
2023/09/07 04:51:03;;;;;;;46.40;31.60;;;;;;;-141.97;95.48;47694.00;5030530;28;20265;-80
2023/09/07 04:53:30;;;;;;;53.07;34.17;;;;;;;-141.97;95.16;47703.59;5031038;28;20197;-81
2023/09/07 04:55:56;;;;;;;49.00;37.23;;;;;;;-141.97;94.25;47724.75;5031144;28;20259;-80
2023/09/07 04:58:22;;;;;;;46.07;34.33;;;;;;;-141.97;93.98;47713.22;5020676;28;20229;-79
2023/09/07 05:00:47;;;;;;;41.90;31.63;;;;;;;-141.97;93.17;47682.47;5030450;28;20649;-79
2023/09/07 05:03:13;;;;;;;44.43;31.83;;;;;;;-141.97;93.45;47717.06;5030790;28;20173;-80
2023/09/07 05:05:38;;;;;;;44.73;30.67;;;;;;;-141.97;93.34;47699.75;5030902;28;20674;-79
2023/09/07 05:08:05;;;;;;;43.13;30.93;;;;;;;-141.97;92.90;47720.91;5031028;28;20162;-80
2023/09/07 05:10:33;;;;;;;44.90;32.07;;;;;;;-141.97;92.73;47595.97;5030307;28;20166;-78
2023/09/07 05:12:59;;;;;;;42.07;31.57;;;;;;;-141.97;93.40;47713.22;5030418;28;20173;-79
2023/09/07 05:15:24;;;;;;;46.37;31.13;;;;;;;-141.97;93.29;47722.81;5030419;28;20170;-80
2023/09/07 05:17:50;;;;;;;50.23;31.23;;;;;;;-141.97;92.19;47713.22;5029099;28;20536;-78
2023/09/07 05:20:15;;;;;;;48.67;31.40;;;;;;;-141.97;92.62;47692.06;5029858;28;20189;-83
2023/09/07 05:22:41;;;;;;;46.47;30.20;;;;;;;-141.97;91.26;47705.53;5029701;28;20197;-79
2023/09/07 05:25:06;;;;;;;56.03;33.30;;;;;;;-141.97;92.47;47695.91;5030656;28;20170;-80
2023/09/07 05:27:34;;;;;;;53.60;31.97;;;;;;;-141.97;92.54;47684.38;5029193;28;20162;-78
2023/09/07 05:30:00;;;;;;;57.63;32.40;;;;;;;-141.97;93.26;47695.91;5030059;28;20181;-79
2023/09/07 05:32:26;;;;;;;53.50;32.40;;;;;;;-141.97;92.13;47842.00;5030248;28;20178;-79
2023/09/07 05:34:51;;;;;;;51.53;30.43;;;;;;;-141.97;90.95;47674.78;5030100;28;20162;-78
2023/09/07 05:37:16;;;;;;;44.10;29.60;;;;;;;-141.97;91.17;47669.00;5030297;28;20166;-77
2023/09/07 05:39:42;;;;;;;41.20;29.90;;;;;;;-141.97;90.33;47711.28;5030029;28;20601;-77
2023/09/07 05:42:07;;;;;;;48.00;30.33;;;;;;;-141.97;89.46;47692.06;5029744;28;20226;-77
2023/09/07 05:44:33;;;;;;;48.33;29.47;;;;;;;-141.97;88.35;47718.97;5030654;28;20197;-77
2023/09/07 05:46:58;;;;;;;47.87;29.83;;;;;;;-141.97;88.02;47674.78;5029702;28;20182;-78
2023/09/07 05:49:24;;;;;;;41.47;28.73;;;;;;;-141.97;87.85;47713.22;5029636;28;20539;-77
2023/09/07 05:51:49;;;;;;;39.60;28.83;;;;;;;-141.97;87.58;47722.81;5030439;28;20166;-78
2023/09/07 05:54:15;;;;;;;37.47;26.63;;;;;;;-141.97;85.16;47703.59;5030128;28;20615;-77
2023/09/07 05:56:40;;;;;;;39.40;27.13;;;;;;;-141.97;84.06;47690.16;5021333;28;20223;-78
2023/09/07 05:59:05;;;;;;;38.67;25.30;;;;;;;-141.97;83.37;47680.53;5029662;28;20198;-78
2023/09/07 06:01:31;;;;;;;36.43;25.40;;;;;;;-141.97;83.63;47692.06;5031052;28;20296;-78
2023/09/07 06:03:58;;;;;;;34.80;24.83;;;;;;;-141.97;81.86;47713.22;5032745;28;20228;-78
2023/09/07 06:06:23;;;;;;;36.93;25.67;;;;;;;-141.97;79.84;47680.53;5030146;28;20165;-78
2023/09/07 06:08:49;;;;;;;37.70;24.37;;;;;;;-141.97;78.04;47661.31;5029271;28;20253;-78
2023/09/07 06:11:14;;;;;;;54.77;39.60;;;;;;;-141.97;77.99;47672.84;5030335;28;20194;-80
2023/09/07 06:13:40;;;;;;;55.50;39.90;;;;;;;-141.97;78.23;47722.81;5030017;28;20166;-79
2023/09/07 06:16:05;;;;;;;33.53;24.27;;;;;;;-141.97;79.39;47649.78;5030330;28;20174;-78
2023/09/07 06:18:30;;;;;;;32.03;24.40;;;;;;;-141.97;80.51;47692.06;5029629;28;20174;-79
2023/09/07 06:20:56;;;;;;;34.40;24.47;;;;;;;-141.97;79.00;47690.16;5033293;28;20165;-78
2023/09/07 06:23:21;;;;;;;31.20;22.97;;;;;;;-141.97;78.80;47678.63;5033390;28;20248;-78
2023/09/07 06:25:47;;;;;;;30.10;23.20;;;;;;;-141.97;78.16;47682.47;5034419;28;20158;-78
2023/09/07 06:28:12;;;;;;;32.23;22.57;;;;;;;-141.97;77.03;47680.53;5031918;28;20721;-77
2023/09/07 06:30:38;;;;;;;30.40;21.73;;;;;;;-141.97;74.13;47634.41;5033504;28;20232;-76
2023/09/07 06:33:04;;;;;;;28.93;21.23;;;;;;;-141.97;73.16;47680.53;5033574;28;20169;-79
2023/09/07 06:35:29;;;;;;;28.07;20.47;;;;;;;-141.97;70.88;47601.72;5033438;28;20682;-78
2023/09/07 06:37:55;;;;;;;24.93;19.57;;;;;;;-141.97;71.75;47665.16;5033015;28;20642;-78
2023/09/07 06:40:21;;;;;;;29.30;20.17;;;;;;;-141.97;70.93;47622.88;5033067;28;20212;-78
2023/09/07 06:42:47;;;;;;;26.07;20.47;;;;;;;-141.97;72.53;47613.25;5032816;28;20283;-76
2023/09/07 06:45:12;;;;;;;28.47;20.37;;;;;;;-141.97;73.04;47657.47;5032732;28;20158;-76
2023/09/07 06:47:37;;;;;;;25.90;20.20;;;;;;;-141.97;73.56;47659.38;5032857;28;20164;-77
2023/09/07 06:50:04;;;;;;;30.33;20.60;;;;;;;-141.97;72.67;47649.78;5032054;28;20170;-77
2023/09/07 06:52:29;;;;;;;30.20;20.30;;;;;;;-141.97;71.39;47619.03;5032721;28;20700;-77
2023/09/07 06:54:55;;;;;;;29.77;19.57;;;;;;;-141.97;70.84;47651.69;5032580;28;20165;-77
2023/09/07 06:57:21;;;;;;;27.43;20.20;;;;;;;-141.97;70.27;47607.50;5023288;28;20230;-78
2023/09/07 06:59:46;;;;;;;27.53;19.40;;;;;;;-141.97;70.42;47626.72;5032271;28;20553;-78
2023/09/07 07:02:12;;;;;;;26.77;20.43;;;;;;;-141.97;73.05;47684.38;5032389;28;20321;-78
2023/09/07 07:04:37;;;;;;;28.53;20.47;;;;;;;-141.97;74.02;47653.63;5032451;28;20213;-77
2023/09/07 07:07:04;;;;;;;27.67;20.20;;;;;;;-141.97;72.61;47626.72;5032280;28;20162;-76
2023/09/07 07:09:30;;;;;;;26.13;18.80;;;;;;;-141.97;70.18;47638.25;5032312;28;20189;-78
2023/09/07 07:11:56;;;;;;;25.10;18.60;;;;;;;-141.97;69.27;47642.09;5032361;28;20185;-78
2023/09/07 07:14:21;;;;;;;23.17;16.77;;;;;;;-141.97;69.05;47611.34;5032242;28;20540;-77
2023/09/07 07:16:46;;;;;;;25.47;18.27;;;;;;;-141.97;69.02;47622.88;5032399;28;20186;-76
2023/09/07 07:19:12;;;;;;;27.67;19.00;;;;;;;-141.97;68.85;47619.03;5031111;28;20578;-77
2023/09/07 07:21:37;;;;;;;26.43;17.73;;;;;;;-141.97;68.72;47663.22;5032176;28;20252;-77
2023/09/07 07:24:06;;;;;;;25.63;17.43;;;;;;;-141.97;68.03;47634.41;5031893;28;20170;-78
2023/09/07 07:26:31;;;;;;;25.57;17.23;;;;;;;-141.97;68.37;47734.34;5032154;28;20216;-78
2023/09/07 07:28:56;;;;;;;24.63;16.77;;;;;;;-141.97;67.57;47638.25;5030202;28;20162;-79
2023/09/07 07:31:22;;;;;;;23.17;17.17;;;;;;;-141.97;67.20;47684.38;5030564;28;20665;-77
2023/09/07 07:33:50;;;;;;;23.97;17.80;;;;;;;-141.97;67.38;47665.16;5031548;28;20166;-78
2023/09/07 07:36:16;;;;;;;27.70;16.50;;;;;;;-141.97;67.42;47792.03;5031944;28;20619;-78
2023/09/07 07:38:41;;;;;;;22.17;16.07;;;;;;;-141.97;66.19;47642.09;5032240;28;20218;-78
2023/09/07 07:41:07;;;;;;;21.40;15.57;;;;;;;-141.97;66.41;47634.41;5031683;28;20544;-78
2023/09/07 07:43:33;;;;;;;19.30;14.53;;;;;;;-141.97;65.33;47638.25;5030885;28;20614;-78
2023/09/07 07:45:59;;;;;;;19.73;14.37;;;;;;;-141.97;64.92;47622.88;5030748;28;20313;-78
2023/09/07 07:48:25;;;;;;;23.07;15.20;;;;;;;-141.97;65.53;47645.94;5030957;28;20636;-78
2023/09/07 07:50:50;;;;;;;18.30;14.43;;;;;;;-141.97;64.89;47632.47;5030308;28;20174;-78
2023/09/07 07:53:15;;;;;;;19.83;13.97;;;;;;;-141.97;62.49;47669.00;5030759;28;20289;-79
2023/09/07 07:55:41;;;;;;;22.88;14.05;;;;;;;-141.97;61.69;47594.03;5030763;28;20241;-78
2023/09/07 07:58:08;;;;;;;20.27;14.25;;;;;;;-141.97;60.90;47615.19;5020337;28;20308;-78
2023/09/07 08:00:37;;;;;;;18.67;13.65;;;;;;;-141.97;59.92;47611.34;5030213;28;20195;-78
2023/09/07 08:03:05;;;;;;;20.85;14.13;;;;;;;-141.97;60.96;47586.34;5030661;28;20631;-78
2023/09/07 08:05:32;;;;;;;18.25;13.48;;;;;;;-141.97;60.94;47592.13;5030213;28;20245;-78
2023/09/07 08:07:57;;;;;;;17.08;12.70;;;;;;;-141.97;60.64;47628.63;5028751;28;20232;-77
2023/09/07 08:10:23;;;;;;;17.33;13.00;;;;;;;-141.97;59.79;47640.16;5029924;28;20627;-78
2023/09/07 08:12:48;;;;;;;17.58;12.82;;;;;;;-141.97;59.76;47599.81;5030213;28;20165;-78
2023/09/07 08:15:14;;;;;;;16.35;12.95;;;;;;;-141.97;59.54;47617.09;5030808;28;20260;-78
2023/09/07 08:17:40;;;;;;;17.92;13.70;;;;;;;-141.97;58.74;47576.75;5030530;28;20260;-78
2023/09/07 08:20:07;;;;;;;19.95;14.40;;;;;;;-141.97;58.98;47617.09;5030173;28;20297;-77
2023/09/07 08:22:36;;;;;;;16.65;13.32;;;;;;;-141.97;58.18;47595.97;5030452;28;20181;-78
2023/09/07 08:25:01;;;;;;;20.65;14.00;;;;;;;-141.97;58.18;47580.59;5032101;28;20565;-76
2023/09/07 08:27:27;;;;;;;17.60;13.30;;;;;;;-141.97;56.97;47557.53;5033394;28;20316;-80
2023/09/07 08:29:53;;;;;;;16.92;13.15;;;;;;;-141.97;55.52;47538.28;5031833;28;20154;-77
2023/09/07 08:32:19;;;;;;;15.73;12.48;;;;;;;-141.97;53.74;47603.66;5031087;28;20194;-78
2023/09/07 08:34:44;;;;;;;14.75;12.43;;;;;;;-141.97;52.88;47595.97;5032818;28;20170;-78
2023/09/07 08:37:09;;;;;;;16.98;13.45;;;;;;;-141.97;53.69;47642.09;5030615;28;20260;-79
2023/09/07 08:39:36;;;;;;;17.38;12.75;;;;;;;-141.97;53.79;47542.16;5023164;28;20205;-77
2023/09/07 08:42:02;;;;;;;18.23;12.73;;;;;;;-141.97;52.85;47547.91;4984367;28;1148529;-77
2023/09/07 08:44:29;;;;;;;16.17;12.48;;;;;;;-141.97;52.74;47563.28;5031449;28;20179;-78
2023/09/07 08:46:55;;;;;;;14.40;12.90;;;;;;;-141.97;52.20;47588.28;5031516;28;20624;-78
2023/09/07 08:49:23;;;;;;;18.33;11.88;;;;;;;-141.97;53.00;47736.28;5031093;28;20270;-78
2023/09/07 08:51:49;;;;;;;15.13;11.68;;;;;;;-141.97;53.13;47574.81;5029743;28;20260;-78
2023/09/07 08:54:14;;;;;;;15.75;11.02;;;;;;;-141.97;52.58;47595.97;5031162;28;20172;-78
2023/09/07 08:56:40;;;;;;;15.88;11.02;;;;;;;-141.97;51.70;47551.75;5030891;28;20165;-78
2023/09/07 08:59:05;;;;;;;14.27;10.65;;;;;;;-141.97;50.49;47557.53;5021261;28;20232;-78
2023/09/07 09:01:31;;;;;;;15.05;11.75;;;;;;;-141.97;50.84;47569.06;5030756;28;20252;-78
2023/09/07 09:03:57;;;;;;;14.80;10.15;;;;;;;-141.97;49.92;47572.91;5030694;28;20243;-77
2023/09/07 09:06:23;;;;;;;13.20;10.55;;;;;;;-141.97;51.01;47530.59;5030598;28;20164;-77
2023/09/07 09:08:50;;;;;;;14.27;11.25;;;;;;;-141.97;49.84;47546.00;5030555;28;20160;-79
2023/09/07 09:11:20;;;;;;;16.50;11.50;;;;;;;-141.97;50.70;47586.34;5030241;28;20210;-80
2023/09/07 09:13:47;;;;;;;15.80;11.60;;;;;;;-141.97;50.84;47553.69;5030540;28;20186;-79
2023/09/07 09:16:13;;;;;;;14.82;12.48;;;;;;;-141.97;52.22;47557.53;5030144;28;20164;-79
2023/09/07 09:18:47;;;;;;;17.27;13.07;;;;;;;-141.97;53.14;47542.16;5030120;28;20251;-77
2023/09/07 09:21:14;;;;;;;20.20;14.10;;;;;;;-141.97;53.21;47524.84;5029962;28;20184;-77
2023/09/07 09:23:40;;;;;;;17.23;14.20;;;;;;;-141.97;52.74;47538.28;5030201;28;20522;-77
2023/09/07 09:26:06;;;;;;;15.68;13.57;;;;;;;-141.97;52.77;47578.66;5030105;28;20204;-79
2023/09/07 09:28:32;;;;;;;20.20;13.63;;;;;;;-141.97;52.37;47561.38;5030384;28;20201;-80
2023/09/07 09:30:59;;;;;;;19.83;13.07;;;;;;;-141.97;52.92;47572.91;5029601;28;20185;-77
2023/09/07 09:33:25;;;;;;;15.00;13.40;;;;;;;-141.97;54.15;47574.81;5029761;28;20243;-77
2023/09/07 09:35:53;;;;;;;17.15;13.32;;;;;;;-141.97;54.71;47549.84;5029720;28;20615;-77
2023/09/07 09:38:19;;;;;;;17.67;13.57;;;;;;;-141.97;54.62;47565.22;5030857;28;20163;-78
2023/09/07 09:40:44;;;;;;;16.52;13.75;;;;;;;-141.97;54.70;47584.44;5029751;28;20278;-78
2023/09/07 09:43:10;;;;;;;17.30;13.80;;;;;;;-141.97;54.03;47603.66;5030115;28;20235;-78
2023/09/07 09:45:37;;;;;;;18.38;13.52;;;;;;;-141.97;53.53;47757.41;5028748;28;20678;-77
2023/09/07 09:48:05;;;;;;;18.08;13.27;;;;;;;-141.97;53.73;47592.13;5030089;28;20166;-78
2023/09/07 09:50:31;;;;;;;15.45;12.20;;;;;;;-141.97;53.08;47555.59;5029614;28;20194;-78
2023/09/07 09:52:58;;;;;;;18.55;12.80;;;;;;;-141.97;53.32;47580.59;5030426;28;20162;-79
2023/09/07 09:55:23;;;;;;;24.40;12.93;;;;;;;-141.97;53.31;47542.16;5033508;28;20174;-77
2023/09/07 09:57:50;;;;;;;16.40;13.13;;;;;;;-141.97;52.43;47572.91;5024461;28;20210;-79
2023/09/07 10:02:44;;;;;;;15.68;11.60;;;;;;;-141.97;50.65;47559.44;5033686;28;20196;-78
2023/09/07 10:05:11;;;;;;;16.75;11.68;;;;;;;-141.97;48.16;47503.69;5033509;28;20186;-77
2023/09/07 10:07:44;;;;;;;13.38;11.23;;;;;;;-141.97;46.83;47540.22;5033607;28;20241;-77
2023/09/07 10:10:13;;;;;;;14.25;10.95;;;;;;;-141.97;45.29;47563.28;5032177;28;20178;-78
2023/09/07 10:12:43;;;;;;;16.45;11.15;;;;;;;-141.97;44.26;47484.47;5032298;28;20181;-79
2023/09/07 10:15:23;;;;;;;11.90;10.57;;;;;;;-141.97;42.78;47530.59;5033793;28;20179;-80
2023/09/07 10:17:50;;;;;;;13.88;10.52;;;;;;;-141.97;41.58;47469.09;5034142;28;20176;-79
2023/09/07 10:20:17;;;;;;;16.17;10.63;;;;;;;-141.97;41.26;47428.75;5033303;28;20237;-82
2023/09/07 10:22:43;;;;;;;11.80;9.80;;;;;;;-141.97;39.88;47428.75;5032941;28;20511;-81
2023/09/07 10:25:19;;;;;;;11.13;9.20;;;;;;;-141.97;40.13;47486.41;5033379;28;20193;-79
2023/09/07 10:27:44;;;;;;;11.88;8.93;;;;;;;-141.97;39.94;47467.19;5033252;28;20169;-80
2023/09/07 10:30:12;;;;;;;12.25;9.90;;;;;;;-141.97;40.87;47482.56;5033119;28;20182;-79
2023/09/07 10:32:40;;;;;;;13.68;10.27;;;;;;;-141.97;42.71;47503.69;5032845;28;20173;-79
2023/09/07 10:35:13;;;;;;;14.45;10.93;;;;;;;-141.97;42.88;47440.28;5033493;28;20173;-78
2023/09/07 10:37:39;;;;;;;15.32;10.73;;;;;;;-141.97;42.72;47505.63;5034424;28;20197;-80
2023/09/07 10:40:09;;;;;;;11.80;10.43;;;;;;;-141.97;43.08;47465.25;5033498;28;20302;-78
2023/09/07 10:42:35;;;;;;;13.90;10.00;;;;;;;-141.97;42.53;47501.78;5032578;28;20229;-78
2023/09/07 10:45:10;;;;;;;15.32;10.70;;;;;;;-141.97;43.83;47530.59;5033050;28;20173;-77
2023/09/07 10:47:35;;;;;;;12.80;10.45;;;;;;;-141.97;44.22;47505.63;5032940;28;20177;-79
2023/09/07 10:50:01;;;;;;;13.48;10.52;;;;;;;-141.97;44.93;47484.47;5032899;28;20602;-80
2023/09/07 10:52:28;;;;;;;15.23;10.88;;;;;;;-141.97;45.35;47538.28;5032534;28;20181;-78
2023/09/07 10:55:00;;;;;;;11.73;10.52;;;;;;;-141.97;45.54;47515.22;5032873;28;20237;-78
2023/09/07 10:57:26;;;;;;;14.40;10.73;;;;;;;-141.97;45.06;47534.44;5033331;28;20191;-78
2023/09/07 10:59:54;;;;;;;13.25;10.60;;;;;;;-141.97;44.56;47515.22;5023805;28;20231;-81